sensor_id;sensor_type;location;lat;lon;timestamp;P1;durP1;ratioP1;P2;durP2;ratioP2
32469;SDS011;18925;48.356;10.864;2022-12-20T00:00:25;82.10;;;46.63;;
32469;SDS011;18925;48.356;10.864;2022-12-20T00:00:56;80.50;;;44.35;;
32469;SDS011;18925;48.356;10.864;2022-12-20T00:01:28;76.60;;;44.30;;
32469;SDS011;18925;48.356;10.864;2022-12-20T00:02:00;85.53;;;49.97;;
32469;SDS011;18925;48.356;10.864;2022-12-20T00:02:31;79.47;;;46.05;;
32469;SDS011;18925;48.356;10.864;2022-12-20T00:03:01;84.43;;;47.55;;
32469;SDS011;18925;48.356;10.864;2022-12-20T00:03:32;80.80;;;49.08;;
32469;SDS011;18925;48.356;10.864;2022-12-20T00:04:03;90.03;;;50.25;;
32469;SDS011;18925;48.356;10.864;2022-12-20T00:04:34;78.75;;;46.33;;
32469;SDS011;18925;48.356;10.864;2022-12-20T00:05:05;77.57;;;45.80;;
32469;SDS011;18925;48.356;10.864;2022-12-20T00:05:36;71.45;;;43.38;;
32469;SDS011;18925;48.356;10.864;2022-12-20T00:06:11;82.75;;;44.38;;
32469;SDS011;18925;48.356;10.864;2022-12-20T00:06:43;74.28;;;41.38;;
32469;SDS011;18925;48.356;10.864;2022-12-20T00:07:14;70.75;;;41.25;;
32469;SDS011;18925;48.356;10.864;2022-12-20T00:07:44;82.82;;;44.88;;
32469;SDS011;18925;48.356;10.864;2022-12-20T00:08:15;80.15;;;40.97;;
32469;SDS011;18925;48.356;10.864;2022-12-20T00:08:46;76.28;;;40.70;;
32469;SDS011;18925;48.356;10.864;2022-12-20T00:09:16;81.68;;;46.00;;
32469;SDS011;18925;48.356;10.864;2022-12-20T00:09:47;72.63;;;42.33;;
32469;SDS011;18925;48.356;10.864;2022-12-20T00:10:18;74.80;;;40.35;;
32469;SDS011;18925;48.356;10.864;2022-12-20T00:10:49;72.57;;;42.83;;
32469;SDS011;18925;48.356;10.864;2022-12-20T00:11:20;69.35;;;41.58;;
32469;SDS011;18925;48.356;10.864;2022-12-20T00:11:51;68.28;;;40.95;;
32469;SDS011;18925;48.356;10.864;2022-12-20T00:12:21;80.50;;;43.15;;
32469;SDS011;18925;48.356;10.864;2022-12-20T00:12:52;66.15;;;41.22;;
32469;SDS011;18925;48.356;10.864;2022-12-20T00:13:22;74.50;;;40.90;;
32469;SDS011;18925;48.356;10.864;2022-12-20T00:13:53;73.05;;;41.63;;
32469;SDS011;18925;48.356;10.864;2022-12-20T00:14:24;75.80;;;40.53;;
32469;SDS011;18925;48.356;10.864;2022-12-20T00:14:55;76.93;;;42.58;;
32469;SDS011;18925;48.356;10.864;2022-12-20T00:15:25;78.43;;;40.90;;
32469;SDS011;18925;48.356;10.864;2022-12-20T00:16:57;64.30;;;36.80;;
32469;SDS011;18925;48.356;10.864;2022-12-20T00:17:27;72.10;;;38.10;;
32469;SDS011;18925;48.356;10.864;2022-12-20T00:17:58;66.10;;;36.78;;
32469;SDS011;18925;48.356;10.864;2022-12-20T00:18:29;65.70;;;36.33;;
32469;SDS011;18925;48.356;10.864;2022-12-20T00:19:01;66.78;;;38.17;;
32469;SDS011;18925;48.356;10.864;2022-12-20T00:19:33;61.15;;;34.83;;
32469;SDS011;18925;48.356;10.864;2022-12-20T00:20:04;61.38;;;34.33;;
32469;SDS011;18925;48.356;10.864;2022-12-20T00:20:35;62.22;;;35.72;;
32469;SDS011;18925;48.356;10.864;2022-12-20T00:21:07;60.97;;;37.40;;
32469;SDS011;18925;48.356;10.864;2022-12-20T00:21:39;57.38;;;35.53;;
32469;SDS011;18925;48.356;10.864;2022-12-20T00:22:10;63.88;;;35.08;;
32469;SDS011;18925;48.356;10.864;2022-12-20T00:22:40;65.75;;;37.05;;
32469;SDS011;18925;48.356;10.864;2022-12-20T00:23:11;64.38;;;36.88;;
32469;SDS011;18925;48.356;10.864;2022-12-20T00:23:42;62.83;;;37.58;;
32469;SDS011;18925;48.356;10.864;2022-12-20T00:24:12;64.00;;;37.35;;
32469;SDS011;18925;48.356;10.864;2022-12-20T00:24:43;67.50;;;36.13;;
32469;SDS011;18925;48.356;10.864;2022-12-20T00:25:14;73.15;;;39.85;;
32469;SDS011;18925;48.356;10.864;2022-12-20T00:25:45;67.22;;;39.20;;
32469;SDS011;18925;48.356;10.864;2022-12-20T00:26:17;70.72;;;39.67;;
32469;SDS011;18925;48.356;10.864;2022-12-20T00:26:49;80.68;;;43.28;;
32469;SDS011;18925;48.356;10.864;2022-12-20T00:27:20;69.03;;;39.67;;
32469;SDS011;18925;48.356;10.864;2022-12-20T00:27:50;67.53;;;39.10;;
32469;SDS011;18925;48.356;10.864;2022-12-20T00:28:21;69.07;;;40.30;;
32469;SDS011;18925;48.356;10.864;2022-12-20T00:28:52;67.90;;;37.85;;
32469;SDS011;18925;48.356;10.864;2022-12-20T00:29:23;61.28;;;38.17;;
32469;SDS011;18925;48.356;10.864;2022-12-20T00:29:53;66.28;;;39.10;;
32469;SDS011;18925;48.356;10.864;2022-12-20T00:30:24;65.60;;;37.80;;
32469;SDS011;18925;48.356;10.864;2022-12-20T00:30:55;75.00;;;41.35;;
32469;SDS011;18925;48.356;10.864;2022-12-20T00:31:26;77.32;;;41.75;;
32469;SDS011;18925;48.356;10.864;2022-12-20T00:31:58;71.00;;;39.85;;
32469;SDS011;18925;48.356;10.864;2022-12-20T00:32:29;68.13;;;38.85;;
32469;SDS011;18925;48.356;10.864;2022-12-20T00:33:00;61.50;;;37.15;;
32469;SDS011;18925;48.356;10.864;2022-12-20T00:33:31;66.85;;;37.25;;
32469;SDS011;18925;48.356;10.864;2022-12-20T00:34:03;66.40;;;39.05;;
32469;SDS011;18925;48.356;10.864;2022-12-20T00:34:33;67.18;;;38.95;;
32469;SDS011;18925;48.356;10.864;2022-12-20T00:35:04;69.30;;;40.88;;
32469;SDS011;18925;48.356;10.864;2022-12-20T00:35:35;63.80;;;37.65;;
32469;SDS011;18925;48.356;10.864;2022-12-20T00:36:12;68.13;;;37.08;;
32469;SDS011;18925;48.356;10.864;2022-12-20T00:36:43;64.65;;;36.33;;
32469;SDS011;18925;48.356;10.864;2022-12-20T00:37:13;69.63;;;35.45;;
32469;SDS011;18925;48.356;10.864;2022-12-20T00:37:44;55.83;;;34.85;;
32469;SDS011;18925;48.356;10.864;2022-12-20T00:38:15;65.10;;;35.97;;
32469;SDS011;18925;48.356;10.864;2022-12-20T00:38:46;55.70;;;33.75;;
32469;SDS011;18925;48.356;10.864;2022-12-20T00:39:18;55.92;;;32.50;;
32469;SDS011;18925;48.356;10.864;2022-12-20T00:39:49;57.65;;;34.17;;
32469;SDS011;18925;48.356;10.864;2022-12-20T00:40:19;58.45;;;33.78;;
32469;SDS011;18925;48.356;10.864;2022-12-20T00:41:33;47.72;;;30.27;;
32469;SDS011;18925;48.356;10.864;2022-12-20T00:42:04;51.85;;;30.48;;
32469;SDS011;18925;48.356;10.864;2022-12-20T00:42:35;57.22;;;32.83;;
32469;SDS011;18925;48.356;10.864;2022-12-20T00:43:06;52.67;;;30.35;;
32469;SDS011;18925;48.356;10.864;2022-12-20T00:43:37;51.13;;;30.33;;
32469;SDS011;18925;48.356;10.864;2022-12-20T00:44:08;56.90;;;32.03;;
32469;SDS011;18925;48.356;10.864;2022-12-20T00:44:39;57.40;;;32.55;;
32469;SDS011;18925;48.356;10.864;2022-12-20T00:45:09;55.53;;;31.10;;
32469;SDS011;18925;48.356;10.864;2022-12-20T00:45:40;53.15;;;28.33;;
32469;SDS011;18925;48.356;10.864;2022-12-20T00:46:11;46.28;;;28.15;;
32469;SDS011;18925;48.356;10.864;2022-12-20T00:46:44;51.45;;;28.15;;
32469;SDS011;18925;48.356;10.864;2022-12-20T00:47:14;51.15;;;29.35;;
32469;SDS011;18925;48.356;10.864;2022-12-20T00:47:45;52.50;;;29.80;;
32469;SDS011;18925;48.356;10.864;2022-12-20T00:48:16;54.50;;;31.60;;
32469;SDS011;18925;48.356;10.864;2022-12-20T00:48:46;49.58;;;30.05;;
32469;SDS011;18925;48.356;10.864;2022-12-20T00:49:17;53.53;;;28.55;;
32469;SDS011;18925;48.356;10.864;2022-12-20T00:49:48;51.83;;;28.83;;
32469;SDS011;18925;48.356;10.864;2022-12-20T00:50:18;59.03;;;30.88;;
32469;SDS011;18925;48.356;10.864;2022-12-20T00:50:49;52.20;;;27.83;;
32469;SDS011;18925;48.356;10.864;2022-12-20T00:51:21;53.85;;;28.33;;
32469;SDS011;18925;48.356;10.864;2022-12-20T00:51:54;50.63;;;28.48;;
32469;SDS011;18925;48.356;10.864;2022-12-20T00:52:24;45.05;;;27.48;;
32469;SDS011;18925;48.356;10.864;2022-12-20T00:52:55;50.30;;;26.70;;
32469;SDS011;18925;48.356;10.864;2022-12-20T00:53:26;47.38;;;27.75;;
32469;SDS011;18925;48.356;10.864;2022-12-20T00:53:57;54.53;;;28.92;;
32469;SDS011;18925;48.356;10.864;2022-12-20T00:54:28;50.85;;;29.65;;
32469;SDS011;18925;48.356;10.864;2022-12-20T00:54:58;56.33;;;30.15;;
32469;SDS011;18925;48.356;10.864;2022-12-20T00:55:29;46.63;;;28.50;;
32469;SDS011;18925;48.356;10.864;2022-12-20T00:55:59;57.65;;;29.92;;
32469;SDS011;18925;48.356;10.864;2022-12-20T00:56:30;53.10;;;30.00;;
32469;SDS011;18925;48.356;10.864;2022-12-20T00:57:01;53.97;;;29.55;;
32469;SDS011;18925;48.356;10.864;2022-12-20T00:57:32;48.72;;;29.73;;
32469;SDS011;18925;48.356;10.864;2022-12-20T00:58:02;47.05;;;28.10;;
32469;SDS011;18925;48.356;10.864;2022-12-20T00:58:34;50.10;;;27.20;;
32469;SDS011;18925;48.356;10.864;2022-12-20T00:59:06;54.58;;;29.80;;
32469;SDS011;18925;48.356;10.864;2022-12-20T00:59:36;50.05;;;29.23;;
32469;SDS011;18925;48.356;10.864;2022-12-20T01:00:07;57.55;;;30.63;;
32469;SDS011;18925;48.356;10.864;2022-12-20T01:00:39;45.90;;;29.50;;
32469;SDS011;18925;48.356;10.864;2022-12-20T01:01:20;55.42;;;30.45;;
32469;SDS011;18925;48.356;10.864;2022-12-20T01:01:53;48.33;;;28.92;;
32469;SDS011;18925;48.356;10.864;2022-12-20T01:02:23;43.20;;;27.83;;
32469;SDS011;18925;48.356;10.864;2022-12-20T01:02:54;52.08;;;28.40;;
32469;SDS011;18925;48.356;10.864;2022-12-20T01:03:25;54.28;;;30.25;;
32469;SDS011;18925;48.356;10.864;2022-12-20T01:03:56;54.15;;;29.30;;
32469;SDS011;18925;48.356;10.864;2022-12-20T01:04:27;50.30;;;29.27;;
32469;SDS011;18925;48.356;10.864;2022-12-20T01:04:58;46.35;;;28.23;;
32469;SDS011;18925;48.356;10.864;2022-12-20T01:05:29;50.53;;;27.83;;
32469;SDS011;18925;48.356;10.864;2022-12-20T01:06:00;47.83;;;27.27;;
32469;SDS011;18925;48.356;10.864;2022-12-20T01:06:32;51.65;;;28.55;;
32469;SDS011;18925;48.356;10.864;2022-12-20T01:07:02;49.63;;;30.20;;
32469;SDS011;18925;48.356;10.864;2022-12-20T01:07:33;53.47;;;30.95;;
32469;SDS011;18925;48.356;10.864;2022-12-20T01:08:04;51.25;;;29.98;;
32469;SDS011;18925;48.356;10.864;2022-12-20T01:08:35;55.55;;;33.10;;
32469;SDS011;18925;48.356;10.864;2022-12-20T01:09:06;62.90;;;33.42;;
32469;SDS011;18925;48.356;10.864;2022-12-20T01:09:37;53.35;;;30.25;;
32469;SDS011;18925;48.356;10.864;2022-12-20T01:10:08;49.28;;;28.73;;
32469;SDS011;18925;48.356;10.864;2022-12-20T01:10:39;47.55;;;29.17;;
32469;SDS011;18925;48.356;10.864;2022-12-20T01:11:17;53.78;;;30.85;;
32469;SDS011;18925;48.356;10.864;2022-12-20T01:11:50;54.80;;;30.60;;
32469;SDS011;18925;48.356;10.864;2022-12-20T01:12:20;47.90;;;29.95;;
32469;SDS011;18925;48.356;10.864;2022-12-20T01:12:51;52.88;;;30.33;;
32469;SDS011;18925;48.356;10.864;2022-12-20T01:13:22;53.05;;;29.95;;
32469;SDS011;18925;48.356;10.864;2022-12-20T01:13:54;56.17;;;31.10;;
32469;SDS011;18925;48.356;10.864;2022-12-20T01:14:27;48.25;;;29.02;;
32469;SDS011;18925;48.356;10.864;2022-12-20T01:14:57;57.33;;;30.58;;
32469;SDS011;18925;48.356;10.864;2022-12-20T01:15:28;49.38;;;28.15;;
32469;SDS011;18925;48.356;10.864;2022-12-20T01:16:38;50.95;;;27.77;;
32469;SDS011;18925;48.356;10.864;2022-12-20T01:17:11;47.08;;;28.10;;
32469;SDS011;18925;48.356;10.864;2022-12-20T01:17:41;52.38;;;29.67;;
32469;SDS011;18925;48.356;10.864;2022-12-20T01:18:12;55.35;;;31.10;;
32469;SDS011;18925;48.356;10.864;2022-12-20T01:18:43;50.53;;;30.52;;
32469;SDS011;18925;48.356;10.864;2022-12-20T01:19:15;58.55;;;33.33;;
32469;SDS011;18925;48.356;10.864;2022-12-20T01:19:46;48.75;;;30.95;;
32469;SDS011;18925;48.356;10.864;2022-12-20T01:20:17;58.20;;;33.95;;
32469;SDS011;18925;48.356;10.864;2022-12-20T01:20:48;53.47;;;32.00;;
32469;SDS011;18925;48.356;10.864;2022-12-20T01:21:19;55.38;;;30.05;;
32469;SDS011;18925;48.356;10.864;2022-12-20T01:21:51;52.20;;;29.60;;
32469;SDS011;18925;48.356;10.864;2022-12-20T01:22:22;54.60;;;29.52;;
32469;SDS011;18925;48.356;10.864;2022-12-20T01:22:52;49.55;;;28.70;;
32469;SDS011;18925;48.356;10.864;2022-12-20T01:23:23;51.80;;;28.88;;
32469;SDS011;18925;48.356;10.864;2022-12-20T01:23:54;47.88;;;28.67;;
32469;SDS011;18925;48.356;10.864;2022-12-20T01:24:25;48.03;;;29.20;;
32469;SDS011;18925;48.356;10.864;2022-12-20T01:24:55;54.25;;;29.80;;
32469;SDS011;18925;48.356;10.864;2022-12-20T01:25:26;48.20;;;29.13;;
32469;SDS011;18925;48.356;10.864;2022-12-20T01:25:59;49.45;;;28.75;;
32469;SDS011;18925;48.356;10.864;2022-12-20T01:26:30;53.50;;;30.02;;
32469;SDS011;18925;48.356;10.864;2022-12-20T01:27:00;50.47;;;27.67;;
32469;SDS011;18925;48.356;10.864;2022-12-20T01:27:31;54.40;;;29.80;;
32469;SDS011;18925;48.356;10.864;2022-12-20T01:28:02;45.67;;;28.27;;
32469;SDS011;18925;48.356;10.864;2022-12-20T01:28:33;52.20;;;28.75;;
32469;SDS011;18925;48.356;10.864;2022-12-20T01:29:05;51.83;;;29.20;;
32469;SDS011;18925;48.356;10.864;2022-12-20T01:29:35;52.25;;;30.13;;
32469;SDS011;18925;48.356;10.864;2022-12-20T01:30:06;45.03;;;28.13;;
32469;SDS011;18925;48.356;10.864;2022-12-20T01:30:40;54.03;;;30.35;;
32469;SDS011;18925;48.356;10.864;2022-12-20T01:31:12;57.42;;;33.03;;
32469;SDS011;18925;48.356;10.864;2022-12-20T01:31:47;57.78;;;31.08;;
32469;SDS011;18925;48.356;10.864;2022-12-20T01:32:18;58.22;;;33.30;;
32469;SDS011;18925;48.356;10.864;2022-12-20T01:32:48;62.17;;;34.08;;
32469;SDS011;18925;48.356;10.864;2022-12-20T01:33:19;58.85;;;33.17;;
32469;SDS011;18925;48.356;10.864;2022-12-20T01:33:50;59.13;;;33.72;;
32469;SDS011;18925;48.356;10.864;2022-12-20T01:34:21;57.67;;;35.17;;
32469;SDS011;18925;48.356;10.864;2022-12-20T01:34:52;62.65;;;33.72;;
32469;SDS011;18925;48.356;10.864;2022-12-20T01:35:23;53.42;;;32.83;;
32469;SDS011;18925;48.356;10.864;2022-12-20T01:36:00;63.70;;;35.38;;
32469;SDS011;18925;48.356;10.864;2022-12-20T01:36:36;55.42;;;32.38;;
32469;SDS011;18925;48.356;10.864;2022-12-20T01:37:07;53.15;;;34.42;;
32469;SDS011;18925;48.356;10.864;2022-12-20T01:37:38;57.38;;;35.10;;
32469;SDS011;18925;48.356;10.864;2022-12-20T01:38:08;54.47;;;34.53;;
32469;SDS011;18925;48.356;10.864;2022-12-20T01:38:39;57.63;;;34.80;;
32469;SDS011;18925;48.356;10.864;2022-12-20T01:39:11;56.35;;;34.72;;
32469;SDS011;18925;48.356;10.864;2022-12-20T01:39:44;58.58;;;33.33;;
32469;SDS011;18925;48.356;10.864;2022-12-20T01:40:14;57.63;;;32.92;;
32469;SDS011;18925;48.356;10.864;2022-12-20T01:40:45;54.85;;;32.42;;
32469;SDS011;18925;48.356;10.864;2022-12-20T01:41:17;55.83;;;32.17;;
32469;SDS011;18925;48.356;10.864;2022-12-20T01:41:49;57.03;;;34.28;;
32469;SDS011;18925;48.356;10.864;2022-12-20T01:42:19;60.80;;;38.03;;
32469;SDS011;18925;48.356;10.864;2022-12-20T01:42:50;67.85;;;37.80;;
32469;SDS011;18925;48.356;10.864;2022-12-20T01:43:21;62.25;;;37.35;;
32469;SDS011;18925;48.356;10.864;2022-12-20T01:43:57;59.38;;;34.25;;
32469;SDS011;18925;48.356;10.864;2022-12-20T01:45:00;62.15;;;33.88;;
32469;SDS011;18925;48.356;10.864;2022-12-20T01:45:30;59.42;;;36.63;;
32469;SDS011;18925;48.356;10.864;2022-12-20T01:46:01;53.47;;;32.95;;
32469;SDS011;18925;48.356;10.864;2022-12-20T01:46:33;56.28;;;33.72;;
32469;SDS011;18925;48.356;10.864;2022-12-20T01:47:05;63.35;;;35.13;;
32469;SDS011;18925;48.356;10.864;2022-12-20T01:47:36;56.80;;;33.50;;
32469;SDS011;18925;48.356;10.864;2022-12-20T01:48:07;60.45;;;35.70;;
32469;SDS011;18925;48.356;10.864;2022-12-20T01:48:39;54.35;;;31.85;;
32469;SDS011;18925;48.356;10.864;2022-12-20T01:50:03;60.50;;;33.53;;
32469;SDS011;18925;48.356;10.864;2022-12-20T01:50:35;59.00;;;34.33;;
32469;SDS011;18925;48.356;10.864;2022-12-20T01:51:06;59.80;;;35.22;;
32469;SDS011;18925;48.356;10.864;2022-12-20T01:51:48;59.00;;;33.15;;
32469;SDS011;18925;48.356;10.864;2022-12-20T01:52:27;65.95;;;37.47;;
32469;SDS011;18925;48.356;10.864;2022-12-20T01:53:20;52.28;;;31.73;;
32469;SDS011;18925;48.356;10.864;2022-12-20T01:53:54;66.82;;;36.80;;
32469;SDS011;18925;48.356;10.864;2022-12-20T01:55:23;61.10;;;34.50;;
32469;SDS011;18925;48.356;10.864;2022-12-20T01:55:58;65.93;;;36.10;;
32469;SDS011;18925;48.356;10.864;2022-12-20T01:56:30;58.90;;;34.58;;
32469;SDS011;18925;48.356;10.864;2022-12-20T01:57:02;54.28;;;34.75;;
32469;SDS011;18925;48.356;10.864;2022-12-20T01:58:41;62.05;;;33.75;;
32469;SDS011;18925;48.356;10.864;2022-12-20T01:59:15;59.72;;;35.42;;
32469;SDS011;18925;48.356;10.864;2022-12-20T01:59:46;60.58;;;34.85;;
32469;SDS011;18925;48.356;10.864;2022-12-20T02:00:19;56.50;;;32.97;;
32469;SDS011;18925;48.356;10.864;2022-12-20T02:00:50;61.20;;;35.25;;
32469;SDS011;18925;48.356;10.864;2022-12-20T02:01:22;60.63;;;34.95;;
32469;SDS011;18925;48.356;10.864;2022-12-20T02:01:56;61.35;;;36.03;;
32469;SDS011;18925;48.356;10.864;2022-12-20T02:02:29;57.08;;;31.38;;
32469;SDS011;18925;48.356;10.864;2022-12-20T02:03:05;58.85;;;31.48;;
32469;SDS011;18925;48.356;10.864;2022-12-20T02:03:39;57.60;;;31.20;;
32469;SDS011;18925;48.356;10.864;2022-12-20T02:04:11;52.65;;;30.98;;
32469;SDS011;18925;48.356;10.864;2022-12-20T02:04:42;54.50;;;32.88;;
32469;SDS011;18925;48.356;10.864;2022-12-20T02:05:13;52.35;;;30.25;;
32469;SDS011;18925;48.356;10.864;2022-12-20T02:05:45;53.85;;;28.58;;
32469;SDS011;18925;48.356;10.864;2022-12-20T02:06:17;53.38;;;30.45;;
32469;SDS011;18925;48.356;10.864;2022-12-20T02:06:49;47.80;;;28.98;;
32469;SDS011;18925;48.356;10.864;2022-12-20T02:07:23;49.75;;;29.05;;
32469;SDS011;18925;48.356;10.864;2022-12-20T02:07:55;48.50;;;29.40;;
32469;SDS011;18925;48.356;10.864;2022-12-20T02:08:26;46.88;;;28.63;;
32469;SDS011;18925;48.356;10.864;2022-12-20T02:08:57;48.65;;;30.17;;
32469;SDS011;18925;48.356;10.864;2022-12-20T02:09:31;55.15;;;31.45;;
32469;SDS011;18925;48.356;10.864;2022-12-20T02:10:04;56.53;;;29.83;;
32469;SDS011;18925;48.356;10.864;2022-12-20T02:12:42;55.15;;;30.35;;
32469;SDS011;18925;48.356;10.864;2022-12-20T02:13:19;55.17;;;30.13;;
32469;SDS011;18925;48.356;10.864;2022-12-20T02:15:54;45.42;;;26.27;;
32469;SDS011;18925;48.356;10.864;2022-12-20T02:16:29;57.53;;;28.90;;
32469;SDS011;18925;48.356;10.864;2022-12-20T02:17:13;48.88;;;27.15;;
32469;SDS011;18925;48.356;10.864;2022-12-20T02:18:08;55.65;;;26.80;;
32469;SDS011;18925;48.356;10.864;2022-12-20T02:19:09;49.63;;;28.30;;
32469;SDS011;18925;48.356;10.864;2022-12-20T02:19:55;47.85;;;27.75;;
32469;SDS011;18925;48.356;10.864;2022-12-20T02:20:53;36.95;;;21.88;;
32469;SDS011;18925;48.356;10.864;2022-12-20T02:21:44;52.72;;;27.65;;
32469;SDS011;18925;48.356;10.864;2022-12-20T02:22:28;49.35;;;28.17;;
32469;SDS011;18925;48.356;10.864;2022-12-20T02:23:18;49.50;;;29.38;;
32469;SDS011;18925;48.356;10.864;2022-12-20T02:26:45;56.15;;;29.50;;
32469;SDS011;18925;48.356;10.864;2022-12-20T02:27:29;57.88;;;32.42;;
32469;SDS011;18925;48.356;10.864;2022-12-20T02:29:57;56.80;;;31.83;;
32469;SDS011;18925;48.356;10.864;2022-12-20T02:30:39;56.88;;;31.75;;
32469;SDS011;18925;48.356;10.864;2022-12-20T02:31:14;57.75;;;31.48;;
32469;SDS011;18925;48.356;10.864;2022-12-20T02:32:41;55.63;;;31.70;;
32469;SDS011;18925;48.356;10.864;2022-12-20T02:33:31;56.42;;;31.73;;
32469;SDS011;18925;48.356;10.864;2022-12-20T02:34:02;63.00;;;35.03;;
32469;SDS011;18925;48.356;10.864;2022-12-20T02:34:34;58.92;;;33.83;;
32469;SDS011;18925;48.356;10.864;2022-12-20T02:35:06;58.40;;;32.88;;
32469;SDS011;18925;48.356;10.864;2022-12-20T02:35:39;54.80;;;31.52;;
32469;SDS011;18925;48.356;10.864;2022-12-20T02:36:13;60.80;;;35.72;;
32469;SDS011;18925;48.356;10.864;2022-12-20T02:36:45;68.97;;;35.80;;
32469;SDS011;18925;48.356;10.864;2022-12-20T02:37:16;62.13;;;33.85;;
32469;SDS011;18925;48.356;10.864;2022-12-20T02:37:47;58.22;;;33.83;;
32469;SDS011;18925;48.356;10.864;2022-12-20T02:38:23;55.78;;;32.92;;
32469;SDS011;18925;48.356;10.864;2022-12-20T02:38:59;54.20;;;33.72;;
32469;SDS011;18925;48.356;10.864;2022-12-20T02:39:30;55.60;;;32.85;;
32469;SDS011;18925;48.356;10.864;2022-12-20T02:40:01;64.03;;;36.38;;
32469;SDS011;18925;48.356;10.864;2022-12-20T02:40:36;56.80;;;33.90;;
32469;SDS011;18925;48.356;10.864;2022-12-20T02:41:12;58.03;;;33.15;;
32469;SDS011;18925;48.356;10.864;2022-12-20T02:41:50;55.95;;;33.03;;
32469;SDS011;18925;48.356;10.864;2022-12-20T02:42:24;52.20;;;31.58;;
32469;SDS011;18925;48.356;10.864;2022-12-20T02:43:00;54.47;;;31.02;;
32469;SDS011;18925;48.356;10.864;2022-12-20T02:43:33;47.42;;;29.55;;
32469;SDS011;18925;48.356;10.864;2022-12-20T02:44:43;38.30;;;22.58;;
32469;SDS011;18925;48.356;10.864;2022-12-20T02:45:38;53.97;;;29.83;;
32469;SDS011;18925;48.356;10.864;2022-12-20T02:46:08;48.20;;;27.60;;
32469;SDS011;18925;48.356;10.864;2022-12-20T02:46:40;49.50;;;27.75;;
32469;SDS011;18925;48.356;10.864;2022-12-20T02:47:13;55.53;;;29.02;;
32469;SDS011;18925;48.356;10.864;2022-12-20T02:47:48;48.40;;;28.27;;
32469;SDS011;18925;48.356;10.864;2022-12-20T02:48:29;51.38;;;30.90;;
32469;SDS011;18925;48.356;10.864;2022-12-20T02:49:04;52.97;;;32.30;;
32469;SDS011;18925;48.356;10.864;2022-12-20T02:49:41;53.97;;;30.85;;
32469;SDS011;18925;48.356;10.864;2022-12-20T02:50:16;59.55;;;34.10;;
32469;SDS011;18925;48.356;10.864;2022-12-20T02:50:51;54.13;;;32.45;;
32469;SDS011;18925;48.356;10.864;2022-12-20T02:51:25;62.20;;;34.50;;
32469;SDS011;18925;48.356;10.864;2022-12-20T02:51:59;53.03;;;32.90;;
32469;SDS011;18925;48.356;10.864;2022-12-20T02:52:31;57.70;;;33.15;;
32469;SDS011;18925;48.356;10.864;2022-12-20T02:53:03;68.28;;;33.63;;
32469;SDS011;18925;48.356;10.864;2022-12-20T02:53:35;51.38;;;29.83;;
32469;SDS011;18925;48.356;10.864;2022-12-20T02:54:08;50.67;;;31.55;;
32469;SDS011;18925;48.356;10.864;2022-12-20T02:54:38;46.80;;;28.85;;
32469;SDS011;18925;48.356;10.864;2022-12-20T02:55:09;59.20;;;33.60;;
32469;SDS011;18925;48.356;10.864;2022-12-20T02:55:42;66.20;;;33.50;;
32469;SDS011;18925;48.356;10.864;2022-12-20T02:56:34;61.13;;;34.28;;
32469;SDS011;18925;48.356;10.864;2022-12-20T02:57:51;51.45;;;32.13;;
32469;SDS011;18925;48.356;10.864;2022-12-20T02:58:30;48.90;;;29.88;;
32469;SDS011;18925;48.356;10.864;2022-12-20T02:59:14;48.47;;;27.75;;
32469;SDS011;18925;48.356;10.864;2022-12-20T02:59:56;55.40;;;30.10;;
32469;SDS011;18925;48.356;10.864;2022-12-20T03:00:33;47.13;;;28.08;;
32469;SDS011;18925;48.356;10.864;2022-12-20T03:01:16;47.10;;;28.52;;
32469;SDS011;18925;48.356;10.864;2022-12-20T03:01:55;49.90;;;28.45;;
32469;SDS011;18925;48.356;10.864;2022-12-20T03:02:26;47.78;;;29.17;;
32469;SDS011;18925;48.356;10.864;2022-12-20T03:02:57;55.50;;;29.42;;
32469;SDS011;18925;48.356;10.864;2022-12-20T03:03:47;35.35;;;21.23;;
32469;SDS011;18925;48.356;10.864;2022-12-20T03:04:20;54.15;;;30.27;;
32469;SDS011;18925;48.356;10.864;2022-12-20T03:04:55;50.30;;;27.40;;
32469;SDS011;18925;48.356;10.864;2022-12-20T03:05:27;49.97;;;29.30;;
32469;SDS011;18925;48.356;10.864;2022-12-20T03:05:58;56.03;;;30.75;;
32469;SDS011;18925;48.356;10.864;2022-12-20T03:06:29;55.88;;;32.03;;
32469;SDS011;18925;48.356;10.864;2022-12-20T03:07:01;61.25;;;32.53;;
32469;SDS011;18925;48.356;10.864;2022-12-20T03:07:34;57.05;;;31.63;;
32469;SDS011;18925;48.356;10.864;2022-12-20T03:08:04;50.55;;;30.60;;
32469;SDS011;18925;48.356;10.864;2022-12-20T03:08:35;49.67;;;29.15;;
32469;SDS011;18925;48.356;10.864;2022-12-20T03:09:06;48.33;;;28.90;;
32469;SDS011;18925;48.356;10.864;2022-12-20T03:09:40;49.53;;;31.08;;
32469;SDS011;18925;48.356;10.864;2022-12-20T03:10:12;46.55;;;28.08;;
32469;SDS011;18925;48.356;10.864;2022-12-20T03:10:43;49.10;;;29.45;;
32469;SDS011;18925;48.356;10.864;2022-12-20T03:11:14;49.03;;;28.95;;
32469;SDS011;18925;48.356;10.864;2022-12-20T03:11:45;49.20;;;28.00;;
32469;SDS011;18925;48.356;10.864;2022-12-20T03:12:16;42.10;;;26.42;;
32469;SDS011;18925;48.356;10.864;2022-12-20T03:12:47;49.72;;;28.33;;
32469;SDS011;18925;48.356;10.864;2022-12-20T03:13:17;59.75;;;30.77;;
32469;SDS011;18925;48.356;10.864;2022-12-20T03:13:49;44.85;;;27.15;;
32469;SDS011;18925;48.356;10.864;2022-12-20T03:14:20;46.53;;;27.25;;
32469;SDS011;18925;48.356;10.864;2022-12-20T03:14:50;44.97;;;27.25;;
32469;SDS011;18925;48.356;10.864;2022-12-20T03:15:21;44.78;;;26.50;;
32469;SDS011;18925;48.356;10.864;2022-12-20T03:15:52;44.42;;;25.02;;
32469;SDS011;18925;48.356;10.864;2022-12-20T03:16:22;43.53;;;26.27;;
32469;SDS011;18925;48.356;10.864;2022-12-20T03:16:53;44.75;;;28.30;;
32469;SDS011;18925;48.356;10.864;2022-12-20T03:17:24;48.95;;;29.40;;
32469;SDS011;18925;48.356;10.864;2022-12-20T03:17:54;45.95;;;28.17;;
32469;SDS011;18925;48.356;10.864;2022-12-20T03:18:25;42.70;;;28.25;;
32469;SDS011;18925;48.356;10.864;2022-12-20T03:18:56;41.97;;;28.20;;
32469;SDS011;18925;48.356;10.864;2022-12-20T03:19:26;48.95;;;28.90;;
32469;SDS011;18925;48.356;10.864;2022-12-20T03:19:57;50.35;;;28.55;;
32469;SDS011;18925;48.356;10.864;2022-12-20T03:20:28;50.97;;;30.60;;
32469;SDS011;18925;48.356;10.864;2022-12-20T03:20:59;51.97;;;30.17;;
32469;SDS011;18925;48.356;10.864;2022-12-20T03:21:29;48.40;;;30.48;;
32469;SDS011;18925;48.356;10.864;2022-12-20T03:22:00;51.55;;;30.90;;
32469;SDS011;18925;48.356;10.864;2022-12-20T03:22:31;54.10;;;32.25;;
32469;SDS011;18925;48.356;10.864;2022-12-20T03:23:02;61.88;;;32.75;;
32469;SDS011;18925;48.356;10.864;2022-12-20T03:23:33;49.67;;;30.95;;
32469;SDS011;18925;48.356;10.864;2022-12-20T03:24:04;48.42;;;28.73;;
32469;SDS011;18925;48.356;10.864;2022-12-20T03:24:35;51.85;;;31.08;;
32469;SDS011;18925;48.356;10.864;2022-12-20T03:25:06;50.67;;;31.33;;
32469;SDS011;18925;48.356;10.864;2022-12-20T03:25:37;53.75;;;31.90;;